Halima K — HPDM — position and weather

sailwx.info

Track history (hours):
 
Tides and Currents Weather Stations Pressure Air Temp Water Temp Dewpoint Dewpoint Depression Visibility Wind Speed Wind Dir Waves Ship Positions

Halima K

Last reported at 2014-Aug-28 02:09 UTC. Time now 2014-Sep-01 23:50 UTC.
Position N 36°43' E 026°27'.

Length 130 m; draft 8.2 m.

Type: Cargo ship. MMSI: 352444000.

Date/timePositionNaut miles runAvg speedWind from/ knotsBaromVisibWave heightAir tempDewpointWater temp
2014-Aug-28 02:09N 36°43' E 026°27'7 9.8
2014-Aug-28 01:24N 36°49' E 026°21'8 9.9
2014-Aug-28 00:33N 36°56' E 026°14'9 9.3
2014-Aug-27 23:34N 37°04' E 026°09'9 9.2
2014-Aug-27 22:34N 37°12' E 026°05'9 9.1
2014-Aug-27 21:34N 37°21' E 026°00'9 9.1
2014-Aug-27 20:33N 37°29' E 025°56'9 9.3
2014-Aug-27 19:33N 37°38' E 025°53'9 8.9
2014-Aug-27 18:31N 37°47' E 025°51'26 8.9
2014-Aug-27 15:33N 38°14' E 025°46'9 9.6
2014-Aug-27 14:34N 38°23' E 025°45'10 9.7
2014-Aug-27 13:33N 38°33' E 025°44'10 9.2
2014-Aug-27 12:30N 38°42' E 025°44'50 9.4
2014-Aug-27 07:12N 39°32' E 025°47'7 9.3
2014-Aug-27 06:30N 39°38' E 025°47'9 9.3
2014-Aug-27 05:34N 39°47' E 025°47'9 9.0
2014-Aug-27 04:33N 39°55' E 025°53'50 9.8
2014-Aug-26 23:25N 40°26' E 026°45'103 9.2
2014-Aug-26 12:18N 40°57' E 028°53'1 0.5
2014-Aug-26 11:13N 40°57' E 028°54'0 0.0
2014-Aug-26 10:33N 40°57' E 028°54'0 0.0
2014-Aug-26 09:16N 40°57' E 028°54'0 0.0
2014-Aug-26 08:24N 40°57' E 028°54'0 0.0
2014-Aug-26 07:33N 40°57' E 028°54'0 0.0
2014-Aug-26 06:32N 40°57' E 028°54'0 0.0
2014-Aug-26 05:33N 40°57' E 028°54'0 0.0
2014-Aug-26 04:33N 40°57' E 028°54'3 3.0
2014-Aug-26 03:33N 40°58' E 028°58'359 8.2
2014-Aug-24 07:32N 46°36' E 031°48'8 7.7
2014-Aug-24 06:33N 46°41' E 031°56'8 7.6
2014-Aug-24 05:33N 46°48' E 031°54'9 8.7
2014-Aug-24 04:33N 46°55' E 032°01'2 1.5
2014-Aug-24 03:32N 46°57' E 032°00'0 0.0
2014-Aug-24 02:32N 46°57' E 032°00'0 0.0
2014-Aug-24 01:32N 46°57' E 032°00'0 0.0
2014-Aug-23 03:29N 46°57' E 032°00'0 0.0
2014-Aug-23 02:32N 46°57' E 032°00'0 0.0
2014-Aug-23 01:33N 46°57' E 032°00'0 0.0
2014-Aug-23 00:32N 46°57' E 032°00'0 0.0
2014-Aug-22 23:32N 46°57' E 032°00'0 0.0
2014-Aug-22 22:32N 46°57' E 032°00'0 0.0
2014-Aug-22 21:32N 46°57' E 032°00'0 0.0
2014-Aug-22 20:32N 46°57' E 032°00'0 0.0
2014-Aug-22 19:32N 46°57' E 032°00'0 0.0
2014-Aug-22 18:32N 46°57' E 032°00'0 0.0
2014-Aug-22 17:32N 46°57' E 032°00'0 0.0
2014-Aug-22 16:32N 46°57' E 032°00'0 0.0
2014-Aug-22 15:32N 46°57' E 032°00'0 0.0
2014-Aug-22 14:32N 46°57' E 032°00'0 0.0
2014-Aug-22 13:32N 46°57' E 032°00'0 0.0
2014-Aug-22 11:20N 46°57' E 032°00'0 0.0
2014-Aug-22 10:32N 46°57' E 032°00'0 0.0
2014-Aug-22 09:32N 46°57' E 032°00'0 0.0
2014-Aug-22 08:32N 46°57' E 032°00'0 0.0
2014-Aug-22 07:32N 46°57' E 032°00'0 0.0
2014-Aug-22 06:32N 46°57' E 032°00'0 0.0
2014-Aug-22 05:32N 46°57' E 032°00'0 0.0
2014-Aug-22 04:32N 46°57' E 032°00'0 0.0
2014-Aug-22 03:32N 46°57' E 032°00'0 0.0
2014-Aug-22 02:32N 46°57' E 032°00'0 0.0
2014-Aug-22 01:32N 46°57' E 032°00'0 0.0
2014-Aug-22 00:32N 46°57' E 032°00'0 0.0
2014-Aug-21 23:32N 46°57' E 032°00'0 0.0
2014-Aug-21 22:32N 46°57' E 032°00'0 0.0
2014-Aug-21 21:32N 46°57' E 032°00'0 0.0
2014-Aug-21 20:32N 46°57' E 032°00'0 0.0
2014-Aug-21 19:32N 46°57' E 032°00'0 0.0
2014-Aug-21 18:32N 46°57' E 032°00'0 0.0
2014-Aug-21 17:32N 46°57' E 032°00'0 0.0
2014-Aug-21 16:32N 46°57' E 032°00'0 0.0
2014-Aug-21 15:32N 46°57' E 032°00'0 0.0
2014-Aug-21 14:32N 46°57' E 032°00'0 0.0
2014-Aug-21 13:32N 46°57' E 032°00'0 0.0
2014-Aug-21 12:32N 46°57' E 032°00'0 0.0
2014-Aug-21 11:32N 46°57' E 032°00'0 0.0
2014-Aug-21 10:32N 46°57' E 032°00'0 0.0
2014-Aug-21 09:32N 46°57' E 032°00'0 0.0
2014-Aug-21 08:32N 46°57' E 032°00'0 0.0
2014-Aug-21 07:32N 46°57' E 032°00'0 0.0
2014-Aug-21 06:32N 46°57' E 032°00'0 0.0
2014-Aug-21 05:32N 46°57' E 032°00'0 0.0
2014-Aug-21 04:32N 46°57' E 032°00'0 0.0
2014-Aug-21 03:32N 46°57' E 032°00'0 0.0
2014-Aug-21 02:32N 46°57' E 032°00'0 0.0
2014-Aug-21 01:32N 46°57' E 032°00'0 0.0
2014-Aug-21 00:32N 46°57' E 032°00'0 0.0
2014-Aug-20 23:32N 46°57' E 032°00'0 0.0
2014-Aug-20 22:32N 46°57' E 032°00'0 0.0
2014-Aug-20 20:20N 46°57' E 032°00'0 0.0
2014-Aug-20 19:32N 46°57' E 032°00'0 0.0
2014-Aug-20 18:32N 46°57' E 032°00'0 0.0
2014-Aug-20 17:32N 46°57' E 032°00'0 0.0
2014-Aug-20 16:32N 46°57' E 032°00'0 0.0
2014-Aug-20 15:32N 46°57' E 032°00'0 0.0
2014-Aug-20 14:32N 46°57' E 032°00'0 0.0
2014-Aug-20 13:32N 46°57' E 032°00'0 0.0
2014-Aug-20 12:32N 46°57' E 032°00'0 0.0
2014-Aug-20 11:32N 46°57' E 032°00'0 0.0
2014-Aug-20 10:32N 46°57' E 032°00'0 0.0
2014-Aug-20 09:32N 46°57' E 032°00'0 0.0
2014-Aug-20 08:32N 46°57' E 032°00'0 0.0
2014-Aug-20 07:32N 46°57' E 032°00'0 0.0
2014-Aug-20 06:31N 46°57' E 032°00'0 0.0
2014-Aug-20 05:31N 46°57' E 032°00'0 0.0
2014-Aug-20 04:31N 46°57' E 032°00'0 0.0
2014-Aug-20 03:31N 46°57' E 032°00'0 0.0
2014-Aug-20 02:31N 46°57' E 032°00'0 0.0
2014-Aug-20 01:31N 46°57' E 032°00'0 0.0
2014-Aug-20 00:31N 46°57' E 032°00'0 0.0
2014-Aug-19 23:31N 46°57' E 032°00'0 0.0
2014-Aug-19 22:31N 46°57' E 032°00'0 0.0
2014-Aug-19 21:31N 46°57' E 032°00'0 0.0
2014-Aug-19 20:31N 46°57' E 032°00'0 0.0
2014-Aug-19 19:31N 46°57' E 032°00'0 0.0
2014-Aug-19 18:31N 46°57' E 032°00'0 0.0
2014-Aug-19 17:31N 46°57' E 032°00'0 0.0
2014-Aug-19 16:31N 46°57' E 032°00'0 0.0
2014-Aug-19 15:32N 46°57' E 032°00'0 0.0
2014-Aug-19 14:29N 46°57' E 032°00'0 0.0
2014-Aug-19 13:32N 46°57' E 032°00'0 0.0
2014-Aug-19 12:32N 46°57' E 032°00'0 0.0
2014-Aug-19 11:32N 46°57' E 032°00'0 0.0
2014-Aug-19 10:29N 46°57' E 032°00'0 0.0
2014-Aug-19 09:31N 46°57' E 032°00'0 0.0
2014-Aug-19 08:28N 46°57' E 032°00'0 0.0
2014-Aug-19 07:31N 46°57' E 032°00'0 0.0
2014-Aug-19 06:31N 46°57' E 032°00'0 0.0
2014-Aug-19 05:31N 46°57' E 032°00'0 0.0
2014-Aug-19 04:31N 46°57' E 032°00'0 0.0
2014-Aug-19 03:31N 46°57' E 032°00'0 0.0
2014-Aug-19 02:31N 46°57' E 032°00'0 0.0
2014-Aug-19 01:31N 46°57' E 032°00'0 0.0
2014-Aug-19 00:31N 46°57' E 032°00'0 0.0
2014-Aug-18 23:31N 46°57' E 032°00'0 0.0
2014-Aug-18 22:31N 46°57' E 032°00'0 0.0
2014-Aug-18 21:31N 46°57' E 032°00'0 0.0
2014-Aug-18 20:31N 46°57' E 032°00'0 0.0
2014-Aug-18 19:31N 46°57' E 032°00'0 0.0
2014-Aug-18 18:31N 46°57' E 032°00'0 0.0
2014-Aug-18 17:29N 46°57' E 032°00'0 0.3
2014-Aug-18 16:33N 46°57' E 032°01'9 8.6
2014-Aug-18 15:34N 46°49' E 031°55'9 8.8
2014-Aug-18 14:34N 46°40' E 031°56'  
Track history (hours):
 
Tides and Currents Weather Stations Pressure Air Temp Water Temp Dewpoint Dewpoint Depression Visibility Wind Speed Wind Dir Waves Ship Positions

Halima K

Last reported at 2014-Aug-28 02:09 UTC. Time now 2014-Sep-01 23:50 UTC.
Position N 36°43' E 026°27'.

Length 130 m; draft 8.2 m.

Type: Cargo ship. MMSI: 352444000.

Date/timePositionNaut miles runAvg speedWind from/ knotsBaromVisibWave heightAir tempDewpointWater temp
2014-Aug-28 02:09N 36°43' E 026°27'7 9.8
2014-Aug-28 01:24N 36°49' E 026°21'8 9.9
2014-Aug-28 00:33N 36°56' E 026°14'9 9.3
2014-Aug-27 23:34N 37°04' E 026°09'9 9.2
2014-Aug-27 22:34N 37°12' E 026°05'9 9.1
2014-Aug-27 21:34N 37°21' E 026°00'9 9.1
2014-Aug-27 20:33N 37°29' E 025°56'9 9.3
2014-Aug-27 19:33N 37°38' E 025°53'9 8.9
2014-Aug-27 18:31N 37°47' E 025°51'26 8.9
2014-Aug-27 15:33N 38°14' E 025°46'9 9.6
2014-Aug-27 14:34N 38°23' E 025°45'10 9.7
2014-Aug-27 13:33N 38°33' E 025°44'10 9.2
2014-Aug-27 12:30N 38°42' E 025°44'50 9.4
2014-Aug-27 07:12N 39°32' E 025°47'7 9.3
2014-Aug-27 06:30N 39°38' E 025°47'9 9.3
2014-Aug-27 05:34N 39°47' E 025°47'9 9.0
2014-Aug-27 04:33N 39°55' E 025°53'50 9.8
2014-Aug-26 23:25N 40°26' E 026°45'103 9.2
2014-Aug-26 12:18N 40°57' E 028°53'1 0.5
2014-Aug-26 11:13N 40°57' E 028°54'0 0.0
2014-Aug-26 10:33N 40°57' E 028°54'0 0.0
2014-Aug-26 09:16N 40°57' E 028°54'0 0.0
2014-Aug-26 08:24N 40°57' E 028°54'0 0.0
2014-Aug-26 07:33N 40°57' E 028°54'0 0.0
2014-Aug-26 06:32N 40°57' E 028°54'0 0.0
2014-Aug-26 05:33N 40°57' E 028°54'0 0.0
2014-Aug-26 04:33N 40°57' E 028°54'3 3.0
2014-Aug-26 03:33N 40°58' E 028°58'359 8.2
2014-Aug-24 07:32N 46°36' E 031°48'8 7.7
2014-Aug-24 06:33N 46°41' E 031°56'8 7.6
2014-Aug-24 05:33N 46°48' E 031°54'9 8.7
2014-Aug-24 04:33N 46°55' E 032°01'2 1.5
2014-Aug-24 03:32N 46°57' E 032°00'0 0.0
2014-Aug-24 02:32N 46°57' E 032°00'0 0.0
2014-Aug-24 01:32N 46°57' E 032°00'0 0.0
2014-Aug-23 03:29N 46°57' E 032°00'0 0.0
2014-Aug-23 02:32N 46°57' E 032°00'0 0.0
2014-Aug-23 01:33N 46°57' E 032°00'0 0.0
2014-Aug-23 00:32N 46°57' E 032°00'0 0.0
2014-Aug-22 23:32N 46°57' E 032°00'0 0.0
2014-Aug-22 22:32N 46°57' E 032°00'0 0.0
2014-Aug-22 21:32N 46°57' E 032°00'0 0.0
2014-Aug-22 20:32N 46°57' E 032°00'0 0.0
2014-Aug-22 19:32N 46°57' E 032°00'0 0.0
2014-Aug-22 18:32N 46°57' E 032°00'0 0.0
2014-Aug-22 17:32N 46°57' E 032°00'0 0.0
2014-Aug-22 16:32N 46°57' E 032°00'0 0.0
2014-Aug-22 15:32N 46°57' E 032°00'0 0.0
2014-Aug-22 14:32N 46°57' E 032°00'0 0.0
2014-Aug-22 13:32N 46°57' E 032°00'0 0.0
2014-Aug-22 11:20N 46°57' E 032°00'0 0.0
2014-Aug-22 10:32N 46°57' E 032°00'0 0.0
2014-Aug-22 09:32N 46°57' E 032°00'0 0.0
2014-Aug-22 08:32N 46°57' E 032°00'0 0.0
2014-Aug-22 07:32N 46°57' E 032°00'0 0.0
2014-Aug-22 06:32N 46°57' E 032°00'0 0.0
2014-Aug-22 05:32N 46°57' E 032°00'0 0.0
2014-Aug-22 04:32N 46°57' E 032°00'0 0.0
2014-Aug-22 03:32N 46°57' E 032°00'0 0.0
2014-Aug-22 02:32N 46°57' E 032°00'0 0.0
2014-Aug-22 01:32N 46°57' E 032°00'0 0.0
2014-Aug-22 00:32N 46°57' E 032°00'0 0.0
2014-Aug-21 23:32N 46°57' E 032°00'0 0.0
2014-Aug-21 22:32N 46°57' E 032°00'0 0.0
2014-Aug-21 21:32N 46°57' E 032°00'0 0.0
2014-Aug-21 20:32N 46°57' E 032°00'0 0.0
2014-Aug-21 19:32N 46°57' E 032°00'0 0.0
2014-Aug-21 18:32N 46°57' E 032°00'0 0.0
2014-Aug-21 17:32N 46°57' E 032°00'0 0.0
2014-Aug-21 16:32N 46°57' E 032°00'0 0.0
2014-Aug-21 15:32N 46°57' E 032°00'0 0.0
2014-Aug-21 14:32N 46°57' E 032°00'0 0.0
2014-Aug-21 13:32N 46°57' E 032°00'0 0.0
2014-Aug-21 12:32N 46°57' E 032°00'0 0.0
2014-Aug-21 11:32N 46°57' E 032°00'0 0.0
2014-Aug-21 10:32N 46°57' E 032°00'0 0.0
2014-Aug-21 09:32N 46°57' E 032°00'0 0.0
2014-Aug-21 08:32N 46°57' E 032°00'0 0.0
2014-Aug-21 07:32N 46°57' E 032°00'0 0.0
2014-Aug-21 06:32N 46°57' E 032°00'0 0.0
2014-Aug-21 05:32N 46°57' E 032°00'0 0.0
2014-Aug-21 04:32N 46°57' E 032°00'0 0.0
2014-Aug-21 03:32N 46°57' E 032°00'0 0.0
2014-Aug-21 02:32N 46°57' E 032°00'0 0.0
2014-Aug-21 01:32N 46°57' E 032°00'0 0.0
2014-Aug-21 00:32N 46°57' E 032°00'0 0.0
2014-Aug-20 23:32N 46°57' E 032°00'0 0.0
2014-Aug-20 22:32N 46°57' E 032°00'0 0.0
2014-Aug-20 20:20N 46°57' E 032°00'0 0.0
2014-Aug-20 19:32N 46°57' E 032°00'0 0.0
2014-Aug-20 18:32N 46°57' E 032°00'0 0.0
2014-Aug-20 17:32N 46°57' E 032°00'0 0.0
2014-Aug-20 16:32N 46°57' E 032°00'0 0.0
2014-Aug-20 15:32N 46°57' E 032°00'0 0.0
2014-Aug-20 14:32N 46°57' E 032°00'0 0.0
2014-Aug-20 13:32N 46°57' E 032°00'0 0.0
2014-Aug-20 12:32N 46°57' E 032°00'0 0.0
2014-Aug-20 11:32N 46°57' E 032°00'0 0.0
2014-Aug-20 10:32N 46°57' E 032°00'0 0.0
2014-Aug-20 09:32N 46°57' E 032°00'0 0.0
2014-Aug-20 08:32N 46°57' E 032°00'0 0.0
2014-Aug-20 07:32N 46°57' E 032°00'0 0.0
2014-Aug-20 06:31N 46°57' E 032°00'0 0.0
2014-Aug-20 05:31N 46°57' E 032°00'0 0.0
2014-Aug-20 04:31N 46°57' E 032°00'0 0.0
2014-Aug-20 03:31N 46°57' E 032°00'0 0.0
2014-Aug-20 02:31N 46°57' E 032°00'0 0.0
2014-Aug-20 01:31N 46°57' E 032°00'0 0.0
2014-Aug-20 00:31N 46°57' E 032°00'0 0.0
2014-Aug-19 23:31N 46°57' E 032°00'0 0.0
2014-Aug-19 22:31N 46°57' E 032°00'0 0.0
2014-Aug-19 21:31N 46°57' E 032°00'0 0.0
2014-Aug-19 20:31N 46°57' E 032°00'0 0.0
2014-Aug-19 19:31N 46°57' E 032°00'0 0.0
2014-Aug-19 18:31N 46°57' E 032°00'0 0.0
2014-Aug-19 17:31N 46°57' E 032°00'0 0.0
2014-Aug-19 16:31N 46°57' E 032°00'0 0.0
2014-Aug-19 15:32N 46°57' E 032°00'0 0.0
2014-Aug-19 14:29N 46°57' E 032°00'0 0.0
2014-Aug-19 13:32N 46°57' E 032°00'0 0.0
2014-Aug-19 12:32N 46°57' E 032°00'0 0.0
2014-Aug-19 11:32N 46°57' E 032°00'0 0.0
2014-Aug-19 10:29N 46°57' E 032°00'0 0.0
2014-Aug-19 09:31N 46°57' E 032°00'0 0.0
2014-Aug-19 08:28N 46°57' E 032°00'0 0.0
2014-Aug-19 07:31N 46°57' E 032°00'0 0.0
2014-Aug-19 06:31N 46°57' E 032°00'0 0.0
2014-Aug-19 05:31N 46°57' E 032°00'0 0.0
2014-Aug-19 04:31N 46°57' E 032°00'0 0.0
2014-Aug-19 03:31N 46°57' E 032°00'0 0.0
2014-Aug-19 02:31N 46°57' E 032°00'0 0.0
2014-Aug-19 01:31N 46°57' E 032°00'0 0.0
2014-Aug-19 00:31N 46°57' E 032°00'0 0.0
2014-Aug-18 23:31N 46°57' E 032°00'0 0.0
2014-Aug-18 22:31N 46°57' E 032°00'0 0.0
2014-Aug-18 21:31N 46°57' E 032°00'0 0.0
2014-Aug-18 20:31N 46°57' E 032°00'0 0.0
2014-Aug-18 19:31N 46°57' E 032°00'0 0.0
2014-Aug-18 18:31N 46°57' E 032°00'0 0.0
2014-Aug-18 17:29N 46°57' E 032°00'0 0.3
2014-Aug-18 16:33N 46°57' E 032°01'9 8.6
2014-Aug-18 15:34N 46°49' E 031°55'9 8.8
2014-Aug-18 14:34N 46°40' E 031°56'  

Dump ship's entire track history